Winona, Tennessee
Current Conditions -  °F | °C
As of 11:53 PM on Monday 20 Oct 2014 (Local Time) from KOQT Reporting Station
Clear Clear  
Wind Chill: 54°   Ceiling: Unl
Heat Index: 54°   Visibility: 10mi
Dew Point: 51°   Wind: 0mph
Humidity: 90%   Direction: NA
Pressure: 30.03"   Gusts: NA
Location:  36.37°N, 84.45°W
Report Text: KOQT 210353Z AUTO 00000KT 10SM CLR 12/11 A3003 RMK AO2 SLP166 T01220106
Loading
Personal Weather Stations






























Interactive Weather Map
Tropical Storm Tracking
New forecast layout! Learn more

10-Day Weather Forecast

Advertisements
Track Severe Weather on mobile